Time;durP1;ratioP1;P1;durP2;ratioP2;P2;SDS_P1;SDS_P2;PMS_P1;PMS_P2;Temp;Humidity;BMP_temperature;BMP_pressure;BME280_temperature;BME280_humidity;BME280_pressure;Samples;Min_cycle;Max_cycle;Signal;HPM_P1;HPM_P2
2022/07/09 00:00:24;;;;;;;;;;;;;;;16.32;100.00;100816.84;3058514;19;936;-47
2022/07/09 00:01:28;;;;;;;;;;;;;;;16.33;100.00;100823.97;3058392;19;981;-47
2022/07/09 00:02:30;;;;;;;;;;;;;;;16.35;100.00;100822.00;3058637;19;888;-47
2022/07/09 00:03:35;;;;;;;;;;;;;;;16.35;100.00;100827.41;3058762;19;916;-47
2022/07/09 00:04:37;;;;;;;;;;;;;;;16.35;100.00;100822.00;3057871;19;1884;-48
2022/07/09 00:05:41;;;;;;;;;;;;;;;16.36;100.00;100821.03;3058624;19;983;-48
2022/07/09 00:06:43;;;;;;;;;;;;;;;16.36;100.00;100829.09;3058353;19;1020;-47
2022/07/09 00:07:48;;;;;;;;;;;;;;;16.37;100.00;100823.59;3058423;19;933;-47
2022/07/09 00:08:49;;;;;;;;;;;;;;;16.37;100.00;100828.13;3058419;19;897;-48
2022/07/09 00:09:54;;;;;;;;;;;;;;;16.37;100.00;100814.66;3057953;19;877;-47
2022/07/09 00:10:56;;;;;;;;;;;;;;;16.38;100.00;100821.75;3058443;19;976;-47
2022/07/09 00:12:00;;;;;;;;;;;;;;;16.38;100.00;100821.75;3058157;19;1040;-47
2022/07/09 00:13:02;;;;;;;;;;;;;;;16.40;100.00;100830.59;3058367;19;902;-48
2022/07/09 00:14:07;;;;;;;;;;;;;;;16.41;100.00;100826.91;3058534;19;857;-48
2022/07/09 00:15:09;;;;;;;;;;;;;;;16.40;100.00;100823.38;3058389;19;909;-47
2022/07/09 00:16:13;;;;;;;;;;;;;;;16.40;100.00;100820.66;3058481;19;932;-47
2022/07/09 00:17:15;;;;;;;;;;;;;;;16.42;100.00;100820.56;3058129;19;984;-47
2022/07/09 00:18:19;;;;;;;;;;;;;;;16.42;100.00;100828.63;3058013;19;1055;-48
2022/07/09 00:19:21;;;;;;;;;;;;;;;16.43;100.00;100817.69;3058237;19;984;-48
2022/07/09 00:20:26;;;;;;;;;;;;;;;16.43;100.00;100815.00;3057925;19;1061;-47
2022/07/09 00:21:28;;;;;;;;;;;;;;;16.43;100.00;100817.69;3058571;19;786;-48
2022/07/09 00:22:32;;;;;;;;;;;;;;;16.46;100.00;100819.31;3058531;19;932;-47
2022/07/09 00:23:34;;;;;;;;;;;;;;;16.46;100.00;100819.31;3058260;19;851;-48
2022/07/09 00:24:39;;;;;;;;;;;;;;;16.47;100.00;100815.63;3057985;19;1865;-48
2022/07/09 00:25:41;;;;;;;;;;;;;;;16.46;100.00;100804.00;3058040;19;872;-48
2022/07/09 00:26:46;;;;;;;;;;;;;;;16.47;100.00;100805.72;3058242;19;979;-48
2022/07/09 00:27:48;;;;;;;;;;;;;;;16.47;100.00;100807.53;3057066;19;1181;-47
2022/07/09 00:28:52;;;;;;;;;;;;;;;16.47;100.00;100808.41;3057034;19;1415;-47
2022/07/09 00:29:54;;;;;;;;;;;;;;;16.48;100.00;100806.56;3057905;19;926;-48
2022/07/09 00:30:58;;;;;;;;;;;;;;;16.47;100.00;100799.47;3057910;19;924;-47
2022/07/09 00:32:00;;;;;;;;;;;;;;;16.47;100.00;100800.31;3057953;19;936;-47
2022/07/09 00:33:05;;;;;;;;;;;;;;;16.48;100.00;100795.78;3058323;19;984;-48
2022/07/09 00:34:07;;;;;;;;;;;;;;;16.48;100.00;100801.19;3057891;19;995;-47
2022/07/09 00:35:11;;;;;;;;;;;;;;;16.48;100.00;100795.78;3057789;19;905;-47
2022/07/09 00:36:13;;;;;;;;;;;;;;;16.47;100.00;100794.06;3058037;19;881;-47
2022/07/09 00:37:18;;;;;;;;;;;;;;;16.44;100.00;100791.63;3057803;19;996;-47
2022/07/09 00:38:19;;;;;;;;;;;;;;;16.43;100.00;100793.47;3058048;19;1209;-47
2022/07/09 00:39:24;;;;;;;;;;;;;;;16.42;100.00;100785.53;3057779;19;890;-47
2022/07/09 00:40:26;;;;;;;;;;;;;;;16.42;100.00;100790.91;3058140;19;999;-47
2022/07/09 00:41:30;;;;;;;;;;;;;;;16.41;100.00;100778.44;3057726;19;985;-47
2022/07/09 00:42:32;;;;;;;;;;;;;;;16.40;100.00;100782.09;3057858;19;960;-48
2022/07/09 00:43:36;;;;;;;;;;;;;;;16.41;100.00;100778.44;3057353;19;913;-48
2022/07/09 00:44:38;;;;;;;;;;;;;;;16.41;100.00;100783.81;3057853;19;912;-48
2022/07/09 00:45:43;;;;;;;;;;;;;;;16.40;100.00;100777.56;3056939;19;1846;-47
2022/07/09 00:46:44;;;;;;;;;;;;;;;16.38;100.00;100775.97;3057842;19;1277;-47
2022/07/09 00:47:49;;;;;;;;;;;;;;;16.38;100.00;100778.66;3057820;19;873;-47
2022/07/09 00:48:51;;;;;;;;;;;;;;;16.36;100.00;100783.31;3057947;19;1016;-48
2022/07/09 00:49:55;;;;;;;;;;;;;;;16.35;100.00;100784.28;3056547;19;1667;-47
2022/07/09 00:50:57;;;;;;;;;;;;;;;16.32;100.00;100784.53;3056942;19;960;-47
2022/07/09 00:52:02;;;;;;;;;;;;;;;16.30;100.00;100791.91;3056823;19;1735;-47
2022/07/09 00:53:03;;;;;;;;;;;;;;;16.30;100.00;100786.53;3057870;19;907;-47
2022/07/09 00:54:08;;;;;;;;;;;;;;;16.27;100.00;100787.63;3057852;19;1598;-48
2022/07/09 00:55:10;;;;;;;;;;;;;;;16.26;100.00;100783.22;3057620;19;935;-48
2022/07/09 00:56:14;;;;;;;;;;;;;;;16.25;100.00;100784.19;3056839;19;885;-47
2022/07/09 00:57:16;;;;;;;;;;;;;;;16.20;100.00;100781.84;3056611;19;872;-47
2022/07/09 00:58:21;;;;;;;;;;;;;;;16.16;100.00;100791.19;3056854;19;884;-47
2022/07/09 00:59:23;;;;;;;;;;;;;;;16.14;100.00;100787.75;3057038;19;1144;-47
2022/07/09 01:00:27;;;;;;;;;;;;;;;16.11;100.00;100782.59;3057474;19;964;-47
2022/07/09 01:01:29;;;;;;;;;;;;;;;16.11;100.00;100777.22;3057773;19;1048;-47
2022/07/09 01:02:34;;;;;;;;;;;;;;;16.10;100.00;100783.56;3057696;19;845;-47
2022/07/09 01:03:36;;;;;;;;;;;;;;;16.07;100.00;100775.72;3057983;19;869;-48
2022/07/09 01:04:40;;;;;;;;;;;;;;;16.10;100.00;100775.50;3057893;19;1151;-47
2022/07/09 01:05:42;;;;;;;;;;;;;;;16.08;100.00;100768.50;3057149;19;1880;-47
2022/07/09 01:06:46;;;;;;;;;;;;;;;16.07;100.00;100774.88;3057274;19;980;-47
2022/07/09 01:07:48;;;;;;;;;;;;;;;16.07;100.00;100769.50;3057231;19;955;-47
2022/07/09 01:08:53;;;;;;;;;;;;;;;16.06;100.00;100774.03;3057243;19;1685;-49
2022/07/09 01:09:54;;;;;;;;;;;;;;;16.04;100.00;100765.22;3057787;19;931;-48
2022/07/09 01:10:59;;;;;;;;;;;;;;;16.02;100.00;100769.03;3057396;19;1658;-47
2022/07/09 01:12:01;;;;;;;;;;;;;;;15.98;100.00;100771.09;3057824;19;923;-47
2022/07/09 01:13:06;;;;;;;;;;;;;;;15.94;100.00;100766.91;3057521;19;810;-48
2022/07/09 01:14:08;;;;;;;;;;;;;;;15.92;100.00;100770.72;3057706;19;927;-48
2022/07/09 01:15:12;;;;;;;;;;;;;;;15.84;100.00;100769.50;3057502;19;987;-47
2022/07/09 01:16:15;;;;;;;;;;;;;;;15.81;100.00;100766.22;3057618;19;959;-47
2022/07/09 01:17:19;;;;;;;;;;;;;;;15.78;100.00;100769.13;3057346;19;1588;-48
2022/07/09 01:18:21;;;;;;;;;;;;;;;15.74;100.00;100767.66;3057461;19;961;-47
2022/07/09 01:19:26;;;;;;;;;;;;;;;15.68;100.00;100769.00;3057368;19;963;-48
2022/07/09 01:20:29;;;;;;;;;;;;;;;15.64;100.00;100766.66;3057494;19;984;-48
2022/07/09 01:21:33;;;;;;;;;;;;;;;15.63;100.00;100775.72;3057293;19;981;-48
2022/07/09 01:22:35;;;;;;;;;;;;;;;15.61;100.00;100777.66;3057288;19;928;-48
2022/07/09 01:23:39;;;;;;;;;;;;;;;15.59;100.00;100780.47;3057081;19;976;-48
2022/07/09 01:24:41;;;;;;;;;;;;;;;15.57;100.00;100776.19;3057354;19;945;-48
2022/07/09 01:25:46;;;;;;;;;;;;;;;15.53;100.00;100778.22;3055735;19;1859;-47
2022/07/09 01:26:48;;;;;;;;;;;;;;;15.53;100.00;100774.69;3056951;19;909;-48
2022/07/09 01:27:52;;;;;;;;;;;;;;;15.50;100.00;100779.31;3056154;19;1064;-48
2022/07/09 01:28:54;;;;;;;;;;;;;;;15.48;100.00;100773.19;3057632;19;869;-48
2022/07/09 01:29:58;;;;;;;;;;;;;;;15.48;100.00;100783.94;3056957;19;907;-48
2022/07/09 01:31:00;;;;;;;;;;;;;;;15.50;100.00;100787.38;3057465;19;990;-48
2022/07/09 01:32:05;;;;;;;;;;;;;;;15.46;100.00;100785.03;3057149;19;917;-47
2022/07/09 01:33:07;;;;;;;;;;;;;;;15.49;100.00;100780.28;3057626;19;908;-48
2022/07/09 01:34:11;;;;;;;;;;;;;;;15.53;100.00;100785.44;3057244;19;1678;-48
2022/07/09 01:35:13;;;;;;;;;;;;;;;15.53;100.00;100778.22;3057658;19;734;-48
2022/07/09 01:36:19;;;;;;;;;;;;;;;15.56;100.00;100780.72;3056743;19;1704;-48
2022/07/09 01:37:21;;;;;;;;;;;;;;;15.59;100.00;100787.66;3057401;19;955;-48
2022/07/09 01:38:25;;;;;;;;;;;;;;;15.59;100.00;100783.16;3056890;19;1167;-48
2022/07/09 01:39:27;;;;;;;;;;;;;;;15.63;100.00;100791.84;3057341;19;999;-48
2022/07/09 01:40:31;;;;;;;;;;;;;;;15.65;100.00;100784.53;3057070;19;1733;-48
2022/07/09 01:41:33;;;;;;;;;;;;;;;15.65;100.00;100795.28;3057594;19;917;-48
2022/07/09 01:42:38;;;;;;;;;;;;;;;15.64;100.00;100790.88;3056921;19;1669;-48
2022/07/09 01:43:39;;;;;;;;;;;;;;;15.63;100.00;100784.63;3057265;19;932;-47
2022/07/09 01:44:44;;;;;;;;;;;;;;;15.64;100.00;100782.81;3057052;19;985;-48
2022/07/09 01:45:48;;;;;;;;;;;;;;;15.63;100.00;100786.47;3057124;19;1866;-48
2022/07/09 01:46:50;;;;;;;;;;;;;;;15.62;100.00;100795.50;3057056;19;929;-48
2022/07/09 01:47:55;;;;;;;;;;;;;;;15.60;100.00;100786.69;3057243;19;836;-48
2022/07/09 01:48:56;;;;;;;;;;;;;;;15.57;100.00;100800.41;3057214;19;897;-48
2022/07/09 01:50:01;;;;;;;;;;;;;;;15.51;100.00;100788.25;3055919;19;1670;-48
2022/07/09 01:51:03;;;;;;;;;;;;;;;15.53;100.00;100793.50;3057248;19;953;-48
2022/07/09 01:52:08;;;;;;;;;;;;;;;15.49;100.00;100793.75;3056955;19;916;-48
2022/07/09 01:53:10;;;;;;;;;;;;;;;15.47;100.00;100786.75;3057004;19;937;-48
2022/07/09 01:54:14;;;;;;;;;;;;;;;15.43;100.00;100794.22;3056943;19;1577;-48
2022/07/09 01:55:16;;;;;;;;;;;;;;;15.40;100.00;100791.78;3055205;19;859;-48
2022/07/09 01:56:20;;;;;;;;;;;;;;;15.36;100.00;100789.41;3056965;19;1663;-48
2022/07/09 01:57:22;;;;;;;;;;;;;;;15.31;100.00;100775.47;3057091;19;951;-48
2022/07/09 01:58:27;;;;;;;;;;;;;;;15.30;100.00;100777.31;3056066;19;1715;-48
2022/07/09 01:59:28;;;;;;;;;;;;;;;15.31;100.00;100773.66;3056077;19;953;-48
2022/07/09 02:00:33;;;;;;;;;;;;;;;15.27;100.00;100774.84;3057026;19;1689;-48
2022/07/09 02:01:35;;;;;;;;;;;;;;;15.24;100.00;100772.41;3056651;19;960;-48
2022/07/09 02:02:39;;;;;;;;;;;;;;;15.18;100.00;100772.88;3056987;19;1705;-48
2022/07/09 02:03:41;;;;;;;;;;;;;;;15.19;100.00;100766.53;3056915;19;934;-48
2022/07/09 02:04:45;;;;;;;;;;;;;;;15.14;100.00;100763.31;3056767;19;980;-48
2022/07/09 02:05:47;;;;;;;;;;;;;;;15.12;100.00;100759.88;3056558;19;908;-48
2022/07/09 02:06:52;;;;;;;;;;;;;;;15.08;100.00;100761.13;3056011;19;1833;-48
2022/07/09 02:07:54;;;;;;;;;;;;;;;15.07;100.00;100762.09;3056810;19;868;-48
2022/07/09 02:08:58;;;;;;;;;;;;;;;15.05;100.00;100764.88;3056931;19;1030;-47
2022/07/09 02:10:01;;;;;;;;;;;;;;;15.06;100.00;100763.06;3056932;19;983;-48
2022/07/09 02:11:06;;;;;;;;;;;;;;;15.07;100.00;100756.72;3056645;19;878;-48
2022/07/09 02:12:08;;;;;;;;;;;;;;;15.09;100.00;100749.38;3056918;19;847;-48
2022/07/09 02:13:13;;;;;;;;;;;;;;;15.12;100.00;100754.50;3056624;19;1765;-48
2022/07/09 02:14:17;;;;;;;;;;;;;;;15.14;100.00;100749.88;3056779;19;1347;-48
2022/07/09 02:15:19;;;;;;;;;;;;;;;15.16;100.00;100750.63;3056974;19;1040;-48
2022/07/09 02:16:24;;;;;;;;;;;;;;;15.19;100.00;100755.78;3056417;19;1144;-48
2022/07/09 02:17:26;;;;;;;;;;;;;;;15.18;100.00;100747.81;3057123;19;852;-48
2022/07/09 02:18:30;;;;;;;;;;;;;;;15.19;100.00;100758.47;3056336;19;1227;-48
2022/07/09 02:19:33;;;;;;;;;;;;;;;15.19;100.00;100750.41;3056911;19;903;-48
2022/07/09 02:20:37;;;;;;;;;;;;;;;15.19;100.00;100753.09;3056522;19;974;-48
2022/07/09 02:21:39;;;;;;;;;;;;;;;15.19;100.00;100750.41;3056875;19;963;-48
2022/07/09 02:22:44;;;;;;;;;;;;;;;15.20;100.00;100752.13;3056620;19;935;-48
2022/07/09 02:23:47;;;;;;;;;;;;;;;15.20;100.00;100752.13;3056810;19;936;-48
2022/07/09 02:24:51;;;;;;;;;;;;;;;15.20;100.00;100752.13;3056415;19;975;-48
2022/07/09 02:25:53;;;;;;;;;;;;;;;15.18;100.00;100748.69;3056540;19;1030;-48
2022/07/09 02:26:57;;;;;;;;;;;;;;;15.20;100.00;100752.13;3056249;19;1862;-48
2022/07/09 02:27:59;;;;;;;;;;;;;;;15.22;100.00;100750.13;3056986;19;999;-48
2022/07/09 02:29:04;;;;;;;;;;;;;;;15.24;100.00;100750.88;3056769;19;919;-48
2022/07/09 02:30:06;;;;;;;;;;;;;;;15.25;100.00;100749.91;3056774;19;888;-48
2022/07/09 02:31:11;;;;;;;;;;;;;;;15.28;100.00;100759.59;3056397;19;901;-48
2022/07/09 02:32:14;;;;;;;;;;;;;;;15.28;100.00;100756.88;3056686;19;924;-48
2022/07/09 02:33:19;;;;;;;;;;;;;;;15.27;100.00;100764.09;3056346;19;1213;-48
2022/07/09 02:34:21;;;;;;;;;;;;;;;15.31;100.00;100760.22;3056488;19;872;-48
2022/07/09 02:35:25;;;;;;;;;;;;;;;15.31;100.00;100757.53;3056084;19;1326;-48
2022/07/09 02:36:27;;;;;;;;;;;;;;;15.32;100.00;100761.94;3056585;19;979;-48
2022/07/09 02:37:33;;;;;;;;;;;;;;;15.31;100.00;100751.28;3056733;19;1014;-48
2022/07/09 02:38:35;;;;;;;;;;;;;;;15.30;100.00;100763.88;3056359;19;858;-48
2022/07/09 02:39:40;;;;;;;;;;;;;;;15.20;100.00;100737.81;3056420;19;952;-48
2022/07/09 02:42:09;;;;;;;;;;;;;;;15.25;100.00;100765.19;3053637;19;1502;-47
2022/07/09 02:43:11;;;;;;;;;;;;;;;15.25;100.00;100759.81;3055324;19;1082;-47
2022/07/09 02:44:16;;;;;;;;;;;;;;;15.23;100.00;100761.75;3055715;19;1154;-47
2022/07/09 02:45:17;;;;;;;;;;;;;;;15.18;100.00;100759.44;3056232;19;888;-47
2022/07/09 02:46:22;;;;;;;;;;;;;;;15.18;100.00;100759.44;3056359;19;880;-47
2022/07/09 02:47:24;;;;;;;;;;;;;;;15.14;100.00;100760.63;3055410;19;1897;-47
2022/07/09 02:48:29;;;;;;;;;;;;;;;15.12;100.00;100755.38;3056503;19;918;-47
2022/07/09 02:49:30;;;;;;;;;;;;;;;15.13;100.00;100750.84;3056171;19;951;-47
2022/07/09 02:50:35;;;;;;;;;;;;;;;15.16;100.00;100756.00;3056281;19;972;-47
2022/07/09 02:51:37;;;;;;;;;;;;;;;15.17;100.00;100752.34;3056201;19;967;-48
2022/07/09 02:52:41;;;;;;;;;;;;;;;15.18;100.00;100759.44;3056405;19;932;-47
2022/07/09 02:53:43;;;;;;;;;;;;;;;15.17;100.00;100756.84;3056233;19;1247;-47
2022/07/09 02:54:48;;;;;;;;;;;;;;;15.17;100.00;100760.41;3056258;19;974;-47
2022/07/09 02:55:49;;;;;;;;;;;;;;;15.19;100.00;100761.16;3056210;19;906;-47
2022/07/09 02:56:54;;;;;;;;;;;;;;;15.17;100.00;100763.09;3056276;19;1260;-47
2022/07/09 02:57:56;;;;;;;;;;;;;;;15.19;100.00;100761.16;3056168;19;1035;-47
2022/07/09 02:59:00;;;;;;;;;;;;;;;15.19;100.00;100769.22;3056238;19;1007;-47
2022/07/09 03:00:03;;;;;;;;;;;;;;;15.19;100.00;100766.53;3056253;19;936;-47
2022/07/09 03:01:07;;;;;;;;;;;;;;;15.18;100.00;100763.94;3056394;19;884;-46
2022/07/09 03:02:09;;;;;;;;;;;;;;;15.17;100.00;100768.47;3056324;19;864;-47
2022/07/09 03:03:14;;;;;;;;;;;;;;;15.18;100.00;100767.50;3056012;19;1837;-48
2022/07/09 03:04:16;;;;;;;;;;;;;;;15.16;100.00;100769.44;3056156;19;1011;-47
2022/07/09 03:05:20;;;;;;;;;;;;;;;15.05;100.00;100747.91;3056006;19;900;-47
2022/07/09 03:06:22;;;;;;;;;;;;;;;15.13;100.00;100769.66;3057874;19;912;-47
2022/07/09 03:07:27;;;;;;;;;;;;;;;15.11;100.00;100768.91;3057917;19;1868;-48
2022/07/09 03:08:29;;;;;;;;;;;;;;;15.09;100.00;100768.22;3059167;19;1120;-47
2022/07/09 03:09:33;;;;;;;;;;;;;;;15.06;100.00;100760.38;3059270;19;928;-47
2022/07/09 03:10:35;;;;;;;;;;;;;;;15.03;100.00;100758.75;3059521;19;963;-47
2022/07/09 03:11:40;;;;;;;;;;;;;;;15.01;100.00;100757.16;3059099;19;983;-47
2022/07/09 03:12:41;;;;;;;;;;;;;;;14.94;100.00;100758.59;3059498;19;896;-47
2022/07/09 03:13:46;;;;;;;;;;;;;;;14.92;100.00;100757.84;3059059;19;1030;-47
2022/07/09 03:14:48;;;;;;;;;;;;;;;14.88;100.00;100753.69;3059308;19;923;-47
2022/07/09 03:15:52;;;;;;;;;;;;;;;14.83;100.00;100755.88;3059109;19;857;-47
2022/07/09 03:16:54;;;;;;;;;;;;;;;14.80;100.00;100746.19;3059113;19;968;-47
2022/07/09 03:17:58;;;;;;;;;;;;;;;14.76;100.00;100745.56;3058861;19;885;-47
2022/07/09 03:19:00;;;;;;;;;;;;;;;14.73;100.00;100748.47;3059295;19;951;-47
2022/07/09 03:20:05;;;;;;;;;;;;;;;14.70;100.00;100747.88;3059172;19;963;-46
2022/07/09 03:21:08;;;;;;;;;;;;;;;14.67;100.00;100750.78;3059106;19;916;-48
2022/07/09 03:22:13;;;;;;;;;;;;;;;14.63;100.00;100747.44;3059277;19;952;-47
2022/07/09 03:23:15;;;;;;;;;;;;;;;14.59;100.00;100750.50;3059438;19;1243;-47
2022/07/09 03:24:20;;;;;;;;;;;;;;;14.59;100.00;100746.00;3059165;19;936;-47
2022/07/09 03:25:22;;;;;;;;;;;;;;;14.55;100.00;100747.16;3059349;19;905;-47
2022/07/09 03:26:28;;;;;;;;;;;;;;;14.54;100.00;100747.28;3058926;19;900;-47
2022/07/09 03:27:30;;;;;;;;;;;;;;;14.53;100.00;100751.78;3058601;19;1849;-47
2022/07/09 03:28:34;;;;;;;;;;;;;;;14.51;100.00;100743.00;3059033;19;1171;-47
2022/07/09 03:29:37;;;;;;;;;;;;;;;14.52;100.00;100743.84;3059122;19;840;-47
2022/07/09 03:30:42;;;;;;;;;;;;;;;14.54;100.00;100747.28;3059016;19;980;-47
2022/07/09 03:31:44;;;;;;;;;;;;;;;14.57;100.00;100742.56;3059120;19;900;-47
2022/07/09 03:32:48;;;;;;;;;;;;;;;14.62;100.00;100748.41;3058619;19;984;-47
2022/07/09 03:33:53;;;;;;;;;;;;;;;14.76;100.00;100742.88;3059137;19;959;-47
2022/07/09 03:34:58;;;;;;;;;;;;;;;15.50;100.00;100755.09;3059019;19;866;-47
2022/07/09 03:36:00;;;;;;;;;;;;;;;16.70;100.00;100760.75;3058911;19;932;-47
2022/07/09 03:37:05;;;;;;;;;;;;;;;17.69;100.00;100771.22;3058730;19;976;-47
2022/07/09 03:38:07;;;;;;;;;;;;;;;18.66;100.00;100799.50;3058940;19;1815;-47
2022/07/09 03:39:12;;;;;;;;;;;;;;;19.51;100.00;100832.22;3058944;19;880;-47
2022/07/09 03:40:14;;;;;;;;;;;;;;;20.36;100.00;100855.75;3059201;19;920;-47
2022/07/09 03:41:18;;;;;;;;;;;;;;;21.20;100.00;100876.31;3058332;19;1143;-47
2022/07/09 03:42:20;;;;;;;;;;;;;;;22.02;100.00;100890.66;3059024;19;968;-48
2022/07/09 03:43:24;;;;;;;;;;;;;;;22.71;100.00;100911.47;3058838;19;948;-47
2022/07/09 03:44:26;;;;;;;;;;;;;;;23.37;100.00;100927.06;3059230;19;940;-47
2022/07/09 03:45:30;;;;;;;;;;;;;;;23.94;100.00;100930.75;3057701;19;1509;-47
2022/07/09 03:46:32;;;;;;;;;;;;;;;24.54;100.00;100941.28;3058192;19;872;-48
2022/07/09 03:47:37;;;;;;;;;;;;;;;25.01;100.00;100941.34;3058265;19;1838;-48
2022/07/09 03:48:39;;;;;;;;;;;;;;;25.52;96.67;100939.03;3058949;19;947;-48
2022/07/09 03:49:43;;;;;;;;;;;;;;;26.03;91.74;100949.28;3058757;19;951;-47
2022/07/09 03:50:45;;;;;;;;;;;;;;;26.55;86.46;100948.50;3058883;19;995;-47
2022/07/09 03:51:50;;;;;;;;;;;;;;;27.02;82.25;100959.13;3058647;19;886;-47
2022/07/09 03:53:11;;;;;;;;;;;;;;;27.70;77.07;100954.28;3058684;19;931;-48
2022/07/09 03:54:16;;;;;;;;;;;;;;;28.01;73.60;100957.56;3058470;19;731;-47
2022/07/09 03:55:18;;;;;;;;;;;;;;;28.35;70.78;100962.31;3058693;19;975;-48
2022/07/09 03:56:22;;;;;;;;;;;;;;;28.64;68.99;100958.50;3058661;19;880;-47
2022/07/09 03:57:24;;;;;;;;;;;;;;;28.90;67.08;100958.72;3058641;19;979;-47
2022/07/09 03:58:28;;;;;;;;;;;;;;;29.23;65.67;100969.03;3058572;19;1078;-48
2022/07/09 03:59:30;;;;;;;;;;;;;;;29.54;64.14;100961.16;3058301;19;1059;-48
2022/07/09 04:00:35;;;;;;;;;;;;;;;29.83;62.59;100975.63;3058584;19;982;-48
2022/07/09 04:01:37;;;;;;;;;;;;;;;30.13;61.16;100971.47;3058469;19;921;-48
2022/07/09 04:02:42;;;;;;;;;;;;;;;30.45;60.16;100959.59;3057775;19;961;-47
2022/07/09 04:03:44;;;;;;;;;;;;;;;30.68;58.61;100970.19;3057688;19;861;-47
2022/07/09 04:04:49;;;;;;;;;;;;;;;30.99;58.03;100963.97;3058464;19;1259;-47
2022/07/09 04:05:51;;;;;;;;;;;;;;;31.32;56.69;100971.31;3058528;19;912;-48
2022/07/09 04:06:56;;;;;;;;;;;;;;;31.63;55.98;100968.63;3058638;19;885;-47
2022/07/09 04:07:58;;;;;;;;;;;;;;;31.89;54.59;100961.25;3057928;19;1845;-47
2022/07/09 04:09:04;;;;;;;;;;;;;;;32.18;53.88;100971.72;3058674;19;965;-47
2022/07/09 04:10:06;;;;;;;;;;;;;;;32.49;53.40;100963.34;3058265;19;1030;-48
2022/07/09 04:11:10;;;;;;;;;;;;;;;32.70;52.07;100964.03;3058542;19;1059;-48
2022/07/09 04:12:12;;;;;;;;;;;;;;;32.87;51.19;100967.91;3058254;19;857;-47
2022/07/09 04:13:16;;;;;;;;;;;;;;;32.89;50.86;100960.22;3058456;19;990;-47
2022/07/09 04:14:19;;;;;;;;;;;;;;;33.01;50.56;100958.38;3057973;19;1394;-48
2022/07/09 04:15:24;;;;;;;;;;;;;;;33.21;50.16;100967.28;3058359;19;963;-48
2022/07/09 04:16:25;;;;;;;;;;;;;;;33.34;50.01;100971.00;3057976;19;957;-47
2022/07/09 04:17:30;;;;;;;;;;;;;;;33.44;49.57;100965.78;3057863;19;1340;-48
2022/07/09 04:18:32;;;;;;;;;;;;;;;33.65;49.08;100965.28;3056992;19;872;-47
2022/07/09 04:19:37;;;;;;;;;;;;;;;33.83;48.91;100959.69;3058397;19;919;-47
2022/07/09 04:20:39;;;;;;;;;;;;;;;34.13;48.13;100964.34;3058024;19;980;-47
2022/07/09 04:21:43;;;;;;;;;;;;;;;34.39;47.90;100966.72;3058413;19;948;-48
2022/07/09 04:22:45;;;;;;;;;;;;;;;34.65;47.61;100960.72;3058104;19;1031;-47
2022/07/09 04:23:53;;;;;;;;;;;;;;;34.95;47.17;100968.06;3058430;19;874;-47
2022/07/09 04:24:55;;;;;;;;;;;;;;;35.28;46.78;100962.69;3057947;19;886;-48
2022/07/09 04:25:59;;;;;;;;;;;;;;;35.65;46.10;100962.31;3058313;19;1007;-47
2022/07/09 04:27:01;;;;;;;;;;;;;;;35.91;45.60;100961.75;3057964;19;936;-48
2022/07/09 04:28:05;;;;;;;;;;;;;;;36.07;45.26;100960.09;3058179;19;880;-48
2022/07/09 04:29:07;;;;;;;;;;;;;;;35.06;45.84;100961.66;3057928;19;1038;-47
2022/07/09 04:30:12;;;;;;;;;;;;;;;33.98;46.81;100960.09;3058158;19;1244;-48
2022/07/09 04:31:15;;;;;;;;;;;;;;;32.93;48.57;100953.19;3057952;19;983;-48
2022/07/09 04:32:20;;;;;;;;;;;;;;;31.72;50.68;100939.72;3058237;19;976;-47
2022/07/09 04:33:22;;;;;;;;;;;;;;;30.42;52.65;100932.50;3058193;19;910;-48
2022/07/09 04:34:27;;;;;;;;;;;;;;;29.49;55.16;100936.16;3058245;19;969;-47
2022/07/09 04:35:28;;;;;;;;;;;;;;;28.58;57.41;100931.88;3058101;19;817;-49
2022/07/09 04:36:33;;;;;;;;;;;;;;;27.78;59.92;100924.81;3058279;19;966;-48
2022/07/09 04:37:35;;;;;;;;;;;;;;;27.33;62.38;100925.13;3057896;19;948;-47
2022/07/09 04:38:39;;;;;;;;;;;;;;;27.22;63.14;100923.75;3058104;19;827;-47
2022/07/09 04:39:41;;;;;;;;;;;;;;;26.48;65.31;100925.63;3057858;19;847;-47
2022/07/09 04:40:45;;;;;;;;;;;;;;;26.18;67.09;100919.25;3057927;19;1023;-47
2022/07/09 04:41:47;;;;;;;;;;;;;;;25.67;69.19;100920.88;3056828;19;1284;-48
2022/07/09 04:42:52;;;;;;;;;;;;;;;25.07;71.73;100918.81;3057922;19;960;-47
2022/07/09 04:43:54;;;;;;;;;;;;;;;24.58;74.45;100918.94;3057764;19;1051;-47
2022/07/09 04:44:58;;;;;;;;;;;;;;;25.09;76.26;100923.06;3058108;19;986;-47
2022/07/09 04:46:00;;;;;;;;;;;;;;;26.29;73.13;100926.19;3057775;19;964;-47
2022/07/09 04:47:04;;;;;;;;;;;;;;;27.29;70.10;100935.63;3057972;19;1086;-47
2022/07/09 04:48:06;;;;;;;;;;;;;;;28.45;66.40;100929.03;3057617;19;1309;-47
2022/07/09 04:49:11;;;;;;;;;;;;;;;29.54;63.56;100939.16;3057190;19;1838;-48
2022/07/09 04:50:13;;;;;;;;;;;;;;;30.55;59.86;100939.09;3057729;19;891;-47
2022/07/09 04:51:17;;;;;;;;;;;;;;;30.83;57.97;100939.63;3057955;19;873;-48
2022/07/09 04:52:19;;;;;;;;;;;;;;;31.85;55.63;100953.44;3057877;19;995;-48
2022/07/09 04:53:24;;;;;;;;;;;;;;;32.05;54.86;100941.41;3058232;19;892;-48
2022/07/09 04:54:25;;;;;;;;;;;;;;;31.03;53.54;100943.19;3057980;19;1037;-48
2022/07/09 04:55:30;;;;;;;;;;;;;;;30.27;55.73;100945.63;3058020;19;1391;-47
2022/07/09 04:56:32;;;;;;;;;;;;;;;29.57;57.69;100952.50;3057590;19;1035;-47
2022/07/09 04:57:36;;;;;;;;;;;;;;;29.47;58.55;100946.50;3057729;19;1197;-48
2022/07/09 04:58:38;;;;;;;;;;;;;;;29.96;58.20;100948.97;3057456;19;1031;-47
2022/07/09 04:59:42;;;;;;;;;;;;;;;29.50;58.58;100937.84;3057884;19;884;-48
2022/07/09 05:00:44;;;;;;;;;;;;;;;30.52;57.08;100943.06;3057783;19;920;-47
2022/07/09 05:01:49;;;;;;;;;;;;;;;31.22;55.43;100960.75;3057713;19;980;-48
2022/07/09 05:02:51;;;;;;;;;;;;;;;31.84;54.84;100960.03;3057502;19;1084;-47
2022/07/09 05:03:56;;;;;;;;;;;;;;;32.54;53.83;100958.00;3057909;19;864;-48
2022/07/09 05:04:58;;;;;;;;;;;;;;;31.67;53.93;100952.50;3057575;19;881;-47
2022/07/09 05:06:02;;;;;;;;;;;;;;;31.06;55.30;100953.78;3058036;19;1558;-47
2022/07/09 05:07:05;;;;;;;;;;;;;;;31.39;55.32;100944.56;3057685;19;1280;-48
2022/07/09 05:08:09;;;;;;;;;;;;;;;31.33;55.20;100945.44;3057653;19;908;-48
2022/07/09 05:09:11;;;;;;;;;;;;;;;30.65;55.94;100950.50;3057233;19;1858;-48
2022/07/09 05:10:16;;;;;;;;;;;;;;;30.43;56.04;100938.84;3057785;19;910;-47
2022/07/09 05:11:17;;;;;;;;;;;;;;;29.59;57.87;100947.59;3057644;19;844;-47
2022/07/09 05:12:22;;;;;;;;;;;;;;;28.66;60.45;100950.91;3057260;19;1320;-47
2022/07/09 05:13:24;;;;;;;;;;;;;;;27.78;63.57;100937.69;3057584;19;960;-47
2022/07/09 05:14:28;;;;;;;;;;;;;;;26.99;66.92;100928.50;3057498;19;878;-47
2022/07/09 05:15:32;;;;;;;;;;;;;;;26.22;70.41;100936.97;3057469;19;1011;-47
2022/07/09 05:16:37;;;;;;;;;;;;;;;25.77;72.94;100932.41;3057456;19;1039;-48
2022/07/09 05:17:39;;;;;;;;;;;;;;;25.20;76.69;100930.00;3057432;19;1028;-48
2022/07/09 05:18:43;;;;;;;;;;;;;;;24.83;81.06;100927.06;3057490;19;805;-47
2022/07/09 05:19:45;;;;;;;;;;;;;;;24.60;84.25;100925.09;3057602;19;1834;-47
2022/07/09 05:20:50;;;;;;;;;;;;;;;24.31;86.60;100927.53;3057243;19;1055;-47
2022/07/09 05:21:52;;;;;;;;;;;;;;;24.22;89.06;100923.06;3057460;19;969;-47
2022/07/09 05:22:57;;;;;;;;;;;;;;;24.02;91.05;100928.91;3057672;19;830;-48
2022/07/09 05:24:01;;;;;;;;;;;;;;;23.90;92.86;100913.91;3057689;19;904;-47
2022/07/09 05:25:06;;;;;;;;;;;;;;;23.70;94.42;100926.13;3057271;19;1022;-47
2022/07/09 05:26:08;;;;;;;;;;;;;;;23.47;95.62;100916.88;3057676;19;868;-47
2022/07/09 05:27:12;;;;;;;;;;;;;;;23.26;97.01;100925.53;3057238;19;1003;-47
2022/07/09 05:28:14;;;;;;;;;;;;;;;23.04;98.38;100921.53;3057545;19;906;-47
2022/07/09 05:29:19;;;;;;;;;;;;;;;22.90;100.00;100914.84;3056104;19;1861;-47
2022/07/09 05:30:20;;;;;;;;;;;;;;;22.59;100.00;100922.63;3055888;19;886;-47